sensor_id;sensor_type;location;lat;lon;timestamp;temperature;humidity
19220;DHT22;9744;49.364;7.484;2023-02-28T00:00:19;0.40;99.90
19220;DHT22;9744;49.364;7.484;2023-02-28T00:02:47;-0.50;99.90
19220;DHT22;9744;49.364;7.484;2023-02-28T00:05:16;0.80;99.90
19220;DHT22;9744;49.364;7.484;2023-02-28T00:07:46;-0.60;99.90
19220;DHT22;9744;49.364;7.484;2023-02-28T00:10:17;-0.50;99.90
19220;DHT22;9744;49.364;7.484;2023-02-28T00:12:46;-1.40;99.90
19220;DHT22;9744;49.364;7.484;2023-02-28T00:15:14;0.70;99.90
19220;DHT22;9744;49.364;7.484;2023-02-28T00:17:41;0.20;99.90
19220;DHT22;9744;49.364;7.484;2023-02-28T00:20:10;-0.50;99.90
19220;DHT22;9744;49.364;7.484;2023-02-28T00:22:39;-0.50;99.90
19220;DHT22;9744;49.364;7.484;2023-02-28T00:25:09;-0.50;99.90
19220;DHT22;9744;49.364;7.484;2023-02-28T00:27:38;-0.60;99.90
19220;DHT22;9744;49.364;7.484;2023-02-28T00:30:08;-0.80;99.90
19220;DHT22;9744;49.364;7.484;2023-02-28T00:32:37;-0.90;99.90
19220;DHT22;9744;49.364;7.484;2023-02-28T00:35:07;-0.40;99.90
19220;DHT22;9744;49.364;7.484;2023-02-28T00:37:34;-1.00;99.90
19220;DHT22;9744;49.364;7.484;2023-02-28T00:40:02;0.20;99.90
19220;DHT22;9744;49.364;7.484;2023-02-28T00:42:34;-1.00;99.90
19220;DHT22;9744;49.364;7.484;2023-02-28T00:45:01;-1.70;99.90
19220;DHT22;9744;49.364;7.484;2023-02-28T00:47:30;-1.10;99.90
19220;DHT22;9744;49.364;7.484;2023-02-28T00:49:58;0.60;99.90
19220;DHT22;9744;49.364;7.484;2023-02-28T00:52:25;-1.00;99.90
19220;DHT22;9744;49.364;7.484;2023-02-28T00:54:54;-1.00;99.90
19220;DHT22;9744;49.364;7.484;2023-02-28T00:57:22;-0.20;99.90
19220;DHT22;9744;49.364;7.484;2023-02-28T00:59:51;0.40;99.90
19220;DHT22;9744;49.364;7.484;2023-02-28T01:02:21;-1.10;99.90
19220;DHT22;9744;49.364;7.484;2023-02-28T01:04:49;-0.50;99.90
19220;DHT22;9744;49.364;7.484;2023-02-28T01:07:16;0.50;99.90
19220;DHT22;9744;49.364;7.484;2023-02-28T01:09:44;-1.10;99.90
19220;DHT22;9744;49.364;7.484;2023-02-28T01:12:11;0.30;99.90
19220;DHT22;9744;49.364;7.484;2023-02-28T01:14:39;-1.30;99.90
19220;DHT22;9744;49.364;7.484;2023-02-28T01:17:08;0.40;99.90
19220;DHT22;9744;49.364;7.484;2023-02-28T01:19:35;-1.00;99.90
19220;DHT22;9744;49.364;7.484;2023-02-28T01:22:04;0.40;99.90
19220;DHT22;9744;49.364;7.484;2023-02-28T01:24:31;0.50;99.90
19220;DHT22;9744;49.364;7.484;2023-02-28T01:26:59;-0.20;99.90
19220;DHT22;9744;49.364;7.484;2023-02-28T01:29:26;0.10;99.90
19220;DHT22;9744;49.364;7.484;2023-02-28T01:31:56;-1.60;99.90
19220;DHT22;9744;49.364;7.484;2023-02-28T01:34:26;0.20;99.90
19220;DHT22;9744;49.364;7.484;2023-02-28T01:36:54;0.20;99.90
19220;DHT22;9744;49.364;7.484;2023-02-28T01:39:21;-1.20;99.90
19220;DHT22;9744;49.364;7.484;2023-02-28T01:41:49;-0.70;99.90
19220;DHT22;9744;49.364;7.484;2023-02-28T01:47:23;-1.50;99.90
19220;DHT22;9744;49.364;7.484;2023-02-28T01:49:53;-2.40;99.90
19220;DHT22;9744;49.364;7.484;2023-02-28T01:52:22;-1.40;99.90
19220;DHT22;9744;49.364;7.484;2023-02-28T01:54:55;0.30;99.90
19220;DHT22;9744;49.364;7.484;2023-02-28T01:57:27;-0.30;99.90
19220;DHT22;9744;49.364;7.484;2023-02-28T01:59:59;-0.70;99.90
19220;DHT22;9744;49.364;7.484;2023-02-28T02:02:39;-1.00;99.90
19220;DHT22;9744;49.364;7.484;2023-02-28T02:05:13;-0.80;99.90
19220;DHT22;9744;49.364;7.484;2023-02-28T02:07:43;-1.60;99.90
19220;DHT22;9744;49.364;7.484;2023-02-28T02:13:06;-1.60;99.90
19220;DHT22;9744;49.364;7.484;2023-02-28T02:15:40;-1.70;99.90
19220;DHT22;9744;49.364;7.484;2023-02-28T02:18:17;-2.00;99.90
19220;DHT22;9744;49.364;7.484;2023-02-28T02:21:33;-0.50;99.90
19220;DHT22;9744;49.364;7.484;2023-02-28T02:24:33;-1.50;99.90
19220;DHT22;9744;49.364;7.484;2023-02-28T02:27:39;-1.60;99.90
19220;DHT22;9744;49.364;7.484;2023-02-28T02:36:19;-1.90;99.90
19220;DHT22;9744;49.364;7.484;2023-02-28T02:38:57;-1.50;99.90
19220;DHT22;9744;49.364;7.484;2023-02-28T02:41:30;-1.90;99.90
19220;DHT22;9744;49.364;7.484;2023-02-28T02:44:03;-1.90;99.90
19220;DHT22;9744;49.364;7.484;2023-02-28T02:46:36;-1.10;99.90
19220;DHT22;9744;49.364;7.484;2023-02-28T02:49:07;-0.90;99.90
19220;DHT22;9744;49.364;7.484;2023-02-28T02:51:38;-0.80;99.90
19220;DHT22;9744;49.364;7.484;2023-02-28T02:54:10;-0.90;99.90
19220;DHT22;9744;49.364;7.484;2023-02-28T02:56:41;-2.10;99.90
19220;DHT22;9744;49.364;7.484;2023-02-28T02:59:12;-2.20;99.90
19220;DHT22;9744;49.364;7.484;2023-02-28T03:01:41;-0.80;99.90
19220;DHT22;9744;49.364;7.484;2023-02-28T03:04:11;-0.20;99.90
19220;DHT22;9744;49.364;7.484;2023-02-28T03:06:40;-0.70;99.90
19220;DHT22;9744;49.364;7.484;2023-02-28T03:09:09;-2.10;99.90
19220;DHT22;9744;49.364;7.484;2023-02-28T03:11:40;-1.70;99.90
19220;DHT22;9744;49.364;7.484;2023-02-28T03:14:25;-0.40;99.90
19220;DHT22;9744;49.364;7.484;2023-02-28T03:17:04;-2.70;99.90
19220;DHT22;9744;49.364;7.484;2023-02-28T03:19:41;-2.20;99.90
19220;DHT22;9744;49.364;7.484;2023-02-28T03:22:29;-0.90;99.90
19220;DHT22;9744;49.364;7.484;2023-02-28T03:25:07;-3.70;99.90
19220;DHT22;9744;49.364;7.484;2023-02-28T03:27:39;-1.40;99.90
19220;DHT22;9744;49.364;7.484;2023-02-28T03:30:12;-0.40;99.90
19220;DHT22;9744;49.364;7.484;2023-02-28T03:32:48;-2.00;99.90
19220;DHT22;9744;49.364;7.484;2023-02-28T03:35:20;-0.90;99.90
19220;DHT22;9744;49.364;7.484;2023-02-28T03:37:56;-2.20;99.90
19220;DHT22;9744;49.364;7.484;2023-02-28T03:40:31;-0.90;99.90
19220;DHT22;9744;49.364;7.484;2023-02-28T03:43:02;-2.30;99.90
19220;DHT22;9744;49.364;7.484;2023-02-28T03:45:32;-2.20;99.90
19220;DHT22;9744;49.364;7.484;2023-02-28T03:48:02;-0.60;99.90
19220;DHT22;9744;49.364;7.484;2023-02-28T03:50:36;-3.30;99.90
19220;DHT22;9744;49.364;7.484;2023-02-28T03:53:09;-0.70;99.90
19220;DHT22;9744;49.364;7.484;2023-02-28T03:55:42;-2.20;99.90
19220;DHT22;9744;49.364;7.484;2023-02-28T03:58:15;-1.80;99.90
19220;DHT22;9744;49.364;7.484;2023-02-28T04:00:47;-0.80;99.90
19220;DHT22;9744;49.364;7.484;2023-02-28T04:03:16;-0.40;99.90
19220;DHT22;9744;49.364;7.484;2023-02-28T04:05:50;-0.70;99.90
19220;DHT22;9744;49.364;7.484;2023-02-28T04:08:20;-2.30;99.90
19220;DHT22;9744;49.364;7.484;2023-02-28T04:10:52;-2.30;99.90
19220;DHT22;9744;49.364;7.484;2023-02-28T04:13:21;-1.40;99.90
19220;DHT22;9744;49.364;7.484;2023-02-28T04:15:48;-2.40;99.90
19220;DHT22;9744;49.364;7.484;2023-02-28T04:18:15;-1.10;99.90
19220;DHT22;9744;49.364;7.484;2023-02-28T04:20:43;-1.10;99.90
19220;DHT22;9744;49.364;7.484;2023-02-28T04:23:10;-2.40;99.90
19220;DHT22;9744;49.364;7.484;2023-02-28T04:25:39;-2.50;99.90
19220;DHT22;9744;49.364;7.484;2023-02-28T04:28:06;-2.00;99.90
19220;DHT22;9744;49.364;7.484;2023-02-28T04:30:34;-2.50;99.90
19220;DHT22;9744;49.364;7.484;2023-02-28T04:33:01;-3.00;99.90
19220;DHT22;9744;49.364;7.484;2023-02-28T04:35:29;-2.40;99.90
19220;DHT22;9744;49.364;7.484;2023-02-28T04:37:56;-2.70;99.90
19220;DHT22;9744;49.364;7.484;2023-02-28T04:40:23;-1.80;99.90
19220;DHT22;9744;49.364;7.484;2023-02-28T04:42:52;-1.60;99.90
19220;DHT22;9744;49.364;7.484;2023-02-28T04:45:19;-1.20;99.90
19220;DHT22;9744;49.364;7.484;2023-02-28T04:47:46;-2.60;99.90
19220;DHT22;9744;49.364;7.484;2023-02-28T04:50:14;-1.70;99.90
19220;DHT22;9744;49.364;7.484;2023-02-28T04:52:41;-2.60;99.90
19220;DHT22;9744;49.364;7.484;2023-02-28T04:55:09;-2.50;99.90
19220;DHT22;9744;49.364;7.484;2023-02-28T04:57:37;-2.60;99.90
19220;DHT22;9744;49.364;7.484;2023-02-28T05:00:07;-3.10;99.90
19220;DHT22;9744;49.364;7.484;2023-02-28T05:02:37;-2.90;99.90
19220;DHT22;9744;49.364;7.484;2023-02-28T05:05:06;-1.50;99.90
19220;DHT22;9744;49.364;7.484;2023-02-28T05:07:33;-2.70;99.90
19220;DHT22;9744;49.364;7.484;2023-02-28T05:10:01;-1.40;99.90
19220;DHT22;9744;49.364;7.484;2023-02-28T05:12:29;-0.90;99.90
19220;DHT22;9744;49.364;7.484;2023-02-28T05:14:57;-2.60;99.90
19220;DHT22;9744;49.364;7.484;2023-02-28T05:17:25;-2.50;99.90
19220;DHT22;9744;49.364;7.484;2023-02-28T05:19:53;-2.50;99.90
19220;DHT22;9744;49.364;7.484;2023-02-28T05:22:20;-2.70;99.90
19220;DHT22;9744;49.364;7.484;2023-02-28T05:24:47;-2.40;99.90
19220;DHT22;9744;49.364;7.484;2023-02-28T05:27:14;-2.80;99.90
19220;DHT22;9744;49.364;7.484;2023-02-28T05:29:42;-2.90;99.90
19220;DHT22;9744;49.364;7.484;2023-02-28T05:32:11;-2.90;99.90
19220;DHT22;9744;49.364;7.484;2023-02-28T05:34:40;-2.80;99.90
19220;DHT22;9744;49.364;7.484;2023-02-28T05:37:12;-1.80;99.90
19220;DHT22;9744;49.364;7.484;2023-02-28T05:39:41;-3.10;99.90
19220;DHT22;9744;49.364;7.484;2023-02-28T05:42:08;-2.90;99.90
19220;DHT22;9744;49.364;7.484;2023-02-28T05:44:36;-2.50;99.90
19220;DHT22;9744;49.364;7.484;2023-02-28T05:47:03;-3.00;99.90
19220;DHT22;9744;49.364;7.484;2023-02-28T05:49:30;-3.00;99.90
19220;DHT22;9744;49.364;7.484;2023-02-28T05:51:59;-3.00;99.90
19220;DHT22;9744;49.364;7.484;2023-02-28T05:54:26;-3.10;99.90
19220;DHT22;9744;49.364;7.484;2023-02-28T05:56:54;-3.20;99.90
19220;DHT22;9744;49.364;7.484;2023-02-28T05:59:21;-1.30;99.90
19220;DHT22;9744;49.364;7.484;2023-02-28T06:01:48;-3.00;99.90
19220;DHT22;9744;49.364;7.484;2023-02-28T06:04:18;-3.00;99.90
19220;DHT22;9744;49.364;7.484;2023-02-28T06:06:47;-2.90;99.90
19220;DHT22;9744;49.364;7.484;2023-02-28T06:09:16;-3.10;99.90
19220;DHT22;9744;49.364;7.484;2023-02-28T06:11:43;-1.80;99.90
19220;DHT22;9744;49.364;7.484;2023-02-28T06:14:15;-2.90;99.90
19220;DHT22;9744;49.364;7.484;2023-02-28T06:16:42;-2.60;99.90
19220;DHT22;9744;49.364;7.484;2023-02-28T06:19:10;-2.50;99.90
19220;DHT22;9744;49.364;7.484;2023-02-28T06:21:38;-3.00;99.90
19220;DHT22;9744;49.364;7.484;2023-02-28T06:24:06;-2.90;99.90
19220;DHT22;9744;49.364;7.484;2023-02-28T06:26:35;-2.90;99.90
19220;DHT22;9744;49.364;7.484;2023-02-28T06:29:03;-2.80;99.90
19220;DHT22;9744;49.364;7.484;2023-02-28T06:31:30;-2.80;99.90
19220;DHT22;9744;49.364;7.484;2023-02-28T06:33:57;-2.70;99.90
19220;DHT22;9744;49.364;7.484;2023-02-28T06:36:24;-2.80;99.90
19220;DHT22;9744;49.364;7.484;2023-02-28T06:38:51;-2.80;99.90
19220;DHT22;9744;49.364;7.484;2023-02-28T06:41:22;-2.70;99.90
19220;DHT22;9744;49.364;7.484;2023-02-28T06:43:52;-2.70;99.90
19220;DHT22;9744;49.364;7.484;2023-02-28T06:46:19;-2.60;99.90
19220;DHT22;9744;49.364;7.484;2023-02-28T06:48:47;-2.50;99.90
19220;DHT22;9744;49.364;7.484;2023-02-28T06:51:16;-2.40;99.90
19220;DHT22;9744;49.364;7.484;2023-02-28T06:53:46;-2.60;99.90
19220;DHT22;9744;49.364;7.484;2023-02-28T06:56:15;-2.70;99.90
19220;DHT22;9744;49.364;7.484;2023-02-28T06:58:45;-2.70;99.90
19220;DHT22;9744;49.364;7.484;2023-02-28T07:01:14;-2.60;99.90
19220;DHT22;9744;49.364;7.484;2023-02-28T07:03:41;-2.50;99.90
19220;DHT22;9744;49.364;7.484;2023-02-28T07:06:08;-2.50;99.90
19220;DHT22;9744;49.364;7.484;2023-02-28T07:08:36;-2.60;99.90
19220;DHT22;9744;49.364;7.484;2023-02-28T07:11:03;-2.60;99.90
19220;DHT22;9744;49.364;7.484;2023-02-28T07:13:31;-2.60;99.90
19220;DHT22;9744;49.364;7.484;2023-02-28T07:16:00;-2.70;99.90
19220;DHT22;9744;49.364;7.484;2023-02-28T07:18:29;-2.50;99.90
19220;DHT22;9744;49.364;7.484;2023-02-28T07:20:57;-2.80;99.90
19220;DHT22;9744;49.364;7.484;2023-02-28T07:23:24;-2.70;99.90
19220;DHT22;9744;49.364;7.484;2023-02-28T07:25:51;-2.60;99.90
19220;DHT22;9744;49.364;7.484;2023-02-28T07:28:19;-2.20;99.90
19220;DHT22;9744;49.364;7.484;2023-02-28T07:30:46;-2.40;99.90
19220;DHT22;9744;49.364;7.484;2023-02-28T07:33:14;-2.30;99.90
19220;DHT22;9744;49.364;7.484;2023-02-28T07:35:42;-2.30;99.90
19220;DHT22;9744;49.364;7.484;2023-02-28T07:38:09;-2.20;99.90
19220;DHT22;9744;49.364;7.484;2023-02-28T07:40:38;-2.20;99.90
19220;DHT22;9744;49.364;7.484;2023-02-28T07:43:05;-1.90;99.90
19220;DHT22;9744;49.364;7.484;2023-02-28T07:45:33;-1.80;99.90
19220;DHT22;9744;49.364;7.484;2023-02-28T07:48:01;-1.60;99.90
19220;DHT22;9744;49.364;7.484;2023-02-28T07:50:28;-1.60;99.90
19220;DHT22;9744;49.364;7.484;2023-02-28T07:52:58;-1.60;99.90
19220;DHT22;9744;49.364;7.484;2023-02-28T07:55:27;-1.60;99.90
19220;DHT22;9744;49.364;7.484;2023-02-28T07:57:54;-1.60;99.90
19220;DHT22;9744;49.364;7.484;2023-02-28T08:00:24;-1.40;99.90
19220;DHT22;9744;49.364;7.484;2023-02-28T08:02:51;-1.40;99.90
19220;DHT22;9744;49.364;7.484;2023-02-28T08:05:18;-1.30;99.90
19220;DHT22;9744;49.364;7.484;2023-02-28T08:07:45;-1.30;99.90
19220;DHT22;9744;49.364;7.484;2023-02-28T08:10:15;-1.30;99.90
19220;DHT22;9744;49.364;7.484;2023-02-28T08:12:42;-1.20;99.90
19220;DHT22;9744;49.364;7.484;2023-02-28T08:15:09;-1.20;99.90
19220;DHT22;9744;49.364;7.484;2023-02-28T08:17:37;-1.10;99.90
19220;DHT22;9744;49.364;7.484;2023-02-28T08:20:05;-1.10;99.90
19220;DHT22;9744;49.364;7.484;2023-02-28T08:22:32;-1.10;99.90
19220;DHT22;9744;49.364;7.484;2023-02-28T08:24:59;-1.00;99.90
19220;DHT22;9744;49.364;7.484;2023-02-28T08:27:28;-1.00;99.90
19220;DHT22;9744;49.364;7.484;2023-02-28T08:29:55;-0.90;99.90
19220;DHT22;9744;49.364;7.484;2023-02-28T08:32:22;-0.80;99.90
19220;DHT22;9744;49.364;7.484;2023-02-28T08:34:50;-0.60;99.90
19220;DHT22;9744;49.364;7.484;2023-02-28T08:37:17;-0.50;99.90
19220;DHT22;9744;49.364;7.484;2023-02-28T08:39:45;-0.30;99.90
19220;DHT22;9744;49.364;7.484;2023-02-28T08:42:12;-0.20;99.90
19220;DHT22;9744;49.364;7.484;2023-02-28T08:44:40;-0.10;99.90
19220;DHT22;9744;49.364;7.484;2023-02-28T08:47:08;0.10;99.90
19220;DHT22;9744;49.364;7.484;2023-02-28T08:49:36;0.20;99.90
19220;DHT22;9744;49.364;7.484;2023-02-28T08:52:03;0.40;99.90
19220;DHT22;9744;49.364;7.484;2023-02-28T08:54:30;0.70;99.90
19220;DHT22;9744;49.364;7.484;2023-02-28T08:56:59;1.00;99.90
19220;DHT22;9744;49.364;7.484;2023-02-28T08:59:26;1.30;99.90
19220;DHT22;9744;49.364;7.484;2023-02-28T09:01:54;1.50;99.90
19220;DHT22;9744;49.364;7.484;2023-02-28T09:04:22;1.60;99.90
19220;DHT22;9744;49.364;7.484;2023-02-28T09:06:51;1.60;99.90
19220;DHT22;9744;49.364;7.484;2023-02-28T09:09:18;1.50;99.90
19220;DHT22;9744;49.364;7.484;2023-02-28T09:11:45;1.40;99.90
19220;DHT22;9744;49.364;7.484;2023-02-28T09:14:12;1.50;99.90
19220;DHT22;9744;49.364;7.484;2023-02-28T09:16:40;1.60;99.90
19220;DHT22;9744;49.364;7.484;2023-02-28T09:19:10;1.50;99.90
19220;DHT22;9744;49.364;7.484;2023-02-28T09:21:38;1.50;99.90
19220;DHT22;9744;49.364;7.484;2023-02-28T09:24:06;1.40;99.90
19220;DHT22;9744;49.364;7.484;2023-02-28T09:26:33;1.50;99.90
19220;DHT22;9744;49.364;7.484;2023-02-28T09:29:01;1.70;99.90
19220;DHT22;9744;49.364;7.484;2023-02-28T09:31:28;1.80;99.90
19220;DHT22;9744;49.364;7.484;2023-02-28T09:33:56;1.90;99.90
19220;DHT22;9744;49.364;7.484;2023-02-28T09:36:26;2.00;99.90
19220;DHT22;9744;49.364;7.484;2023-02-28T09:38:54;2.20;99.90
19220;DHT22;9744;49.364;7.484;2023-02-28T09:41:23;2.50;99.90
19220;DHT22;9744;49.364;7.484;2023-02-28T09:43:56;2.80;99.90
19220;DHT22;9744;49.364;7.484;2023-02-28T09:46:29;3.10;99.90
19220;DHT22;9744;49.364;7.484;2023-02-28T09:49:00;3.30;99.90
19220;DHT22;9744;49.364;7.484;2023-02-28T09:51:37;3.50;99.90
19220;DHT22;9744;49.364;7.484;2023-02-28T09:54:14;3.90;99.90
19220;DHT22;9744;49.364;7.484;2023-02-28T09:56:46;4.30;99.90
19220;DHT22;9744;49.364;7.484;2023-02-28T09:59:21;4.40;99.90
19220;DHT22;9744;49.364;7.484;2023-02-28T10:01:59;4.40;99.90
19220;DHT22;9744;49.364;7.484;2023-02-28T10:04:40;4.20;99.90
19220;DHT22;9744;49.364;7.484;2023-02-28T10:07:19;4.30;99.90
19220;DHT22;9744;49.364;7.484;2023-02-28T10:09:52;4.10;99.90
19220;DHT22;9744;49.364;7.484;2023-02-28T10:12:20;4.10;99.90
19220;DHT22;9744;49.364;7.484;2023-02-28T10:14:52;4.10;99.90
19220;DHT22;9744;49.364;7.484;2023-02-28T10:17:24;4.00;99.90
19220;DHT22;9744;49.364;7.484;2023-02-28T10:19:58;4.00;99.90
19220;DHT22;9744;49.364;7.484;2023-02-28T10:22:40;3.80;99.90
19220;DHT22;9744;49.364;7.484;2023-02-28T10:25:18;3.80;99.90
19220;DHT22;9744;49.364;7.484;2023-02-28T10:27:45;3.80;99.90
19220;DHT22;9744;49.364;7.484;2023-02-28T10:30:13;3.80;99.90
19220;DHT22;9744;49.364;7.484;2023-02-28T10:32:47;3.90;99.90
19220;DHT22;9744;49.364;7.484;2023-02-28T10:35:17;4.10;99.90
19220;DHT22;9744;49.364;7.484;2023-02-28T10:37:49;4.20;99.90
19220;DHT22;9744;49.364;7.484;2023-02-28T10:40:30;4.30;99.90
19220;DHT22;9744;49.364;7.484;2023-02-28T10:42:59;4.30;99.90
19220;DHT22;9744;49.364;7.484;2023-02-28T10:45:28;4.20;99.90
19220;DHT22;9744;49.364;7.484;2023-02-28T10:48:00;4.10;99.90
19220;DHT22;9744;49.364;7.484;2023-02-28T10:50:42;4.20;99.90
19220;DHT22;9744;49.364;7.484;2023-02-28T10:53:32;4.30;99.90
19220;DHT22;9744;49.364;7.484;2023-02-28T10:56:02;4.30;99.90
19220;DHT22;9744;49.364;7.484;2023-02-28T10:58:31;4.40;99.90
19220;DHT22;9744;49.364;7.484;2023-02-28T11:00:59;4.30;99.90
19220;DHT22;9744;49.364;7.484;2023-02-28T11:03:32;4.20;99.90
19220;DHT22;9744;49.364;7.484;2023-02-28T11:06:05;4.10;99.90
19220;DHT22;9744;49.364;7.484;2023-02-28T11:08:34;4.20;99.90
19220;DHT22;9744;49.364;7.484;2023-02-28T11:11:04;4.30;99.90
19220;DHT22;9744;49.364;7.484;2023-02-28T11:13:35;4.50;99.90
19220;DHT22;9744;49.364;7.484;2023-02-28T11:16:05;4.60;99.90
19220;DHT22;9744;49.364;7.484;2023-02-28T11:18:40;4.70;99.90
19220;DHT22;9744;49.364;7.484;2023-02-28T11:21:09;4.80;99.90
19220;DHT22;9744;49.364;7.484;2023-02-28T11:23:40;4.80;99.90
19220;DHT22;9744;49.364;7.484;2023-02-28T11:26:08;4.90;99.90
19220;DHT22;9744;49.364;7.484;2023-02-28T11:28:38;4.90;99.90
19220;DHT22;9744;49.364;7.484;2023-02-28T11:31:16;4.90;99.90
19220;DHT22;9744;49.364;7.484;2023-02-28T11:33:47;5.00;99.90
19220;DHT22;9744;49.364;7.484;2023-02-28T11:36:19;5.00;99.90
19220;DHT22;9744;49.364;7.484;2023-02-28T11:38:48;5.00;99.90
19220;DHT22;9744;49.364;7.484;2023-02-28T11:44:29;5.20;99.90
19220;DHT22;9744;49.364;7.484;2023-02-28T11:47:06;5.60;99.90
19220;DHT22;9744;49.364;7.484;2023-02-28T11:49:43;5.80;99.90
19220;DHT22;9744;49.364;7.484;2023-02-28T11:52:20;6.30;99.90
19220;DHT22;9744;49.364;7.484;2023-02-28T11:54:58;6.60;99.90
19220;DHT22;9744;49.364;7.484;2023-02-28T11:57:50;6.90;99.90
19220;DHT22;9744;49.364;7.484;2023-02-28T12:00:32;7.30;99.90
19220;DHT22;9744;49.364;7.484;2023-02-28T12:03:15;7.60;99.90
19220;DHT22;9744;49.364;7.484;2023-02-28T12:05:45;7.80;99.90
19220;DHT22;9744;49.364;7.484;2023-02-28T12:08:28;7.90;99.90
19220;DHT22;9744;49.364;7.484;2023-02-28T12:11:06;8.10;99.90
19220;DHT22;9744;49.364;7.484;2023-02-28T12:13:42;8.40;99.90
19220;DHT22;9744;49.364;7.484;2023-02-28T12:16:42;8.60;99.90
19220;DHT22;9744;49.364;7.484;2023-02-28T12:19:18;8.90;99.90
19220;DHT22;9744;49.364;7.484;2023-02-28T12:22:12;8.80;99.90
19220;DHT22;9744;49.364;7.484;2023-02-28T12:25:00;8.70;99.90
19220;DHT22;9744;49.364;7.484;2023-02-28T12:27:34;8.50;99.90
19220;DHT22;9744;49.364;7.484;2023-02-28T12:30:05;8.40;99.90
19220;DHT22;9744;49.364;7.484;2023-02-28T12:32:43;8.30;99.90
19220;DHT22;9744;49.364;7.484;2023-02-28T12:35:13;8.10;99.90
19220;DHT22;9744;49.364;7.484;2023-02-28T12:37:44;8.10;99.90
19220;DHT22;9744;49.364;7.484;2023-02-28T12:40:17;8.20;99.90
19220;DHT22;9744;49.364;7.484;2023-02-28T12:42:50;8.30;99.90
19220;DHT22;9744;49.364;7.484;2023-02-28T12:45:20;8.40;99.90
19220;DHT22;9744;49.364;7.484;2023-02-28T12:47:52;8.40;99.90
19220;DHT22;9744;49.364;7.484;2023-02-28T12:50:23;8.50;99.90
19220;DHT22;9744;49.364;7.484;2023-02-28T12:52:55;8.60;99.90
19220;DHT22;9744;49.364;7.484;2023-02-28T12:55:31;8.60;99.90
19220;DHT22;9744;49.364;7.484;2023-02-28T12:58:11;8.40;99.90
19220;DHT22;9744;49.364;7.484;2023-02-28T13:00:48;8.20;99.90
19220;DHT22;9744;49.364;7.484;2023-02-28T13:03:32;7.90;99.90
19220;DHT22;9744;49.364;7.484;2023-02-28T13:09:03;7.10;99.90
19220;DHT22;9744;49.364;7.484;2023-02-28T13:11:33;6.80;99.90
19220;DHT22;9744;49.364;7.484;2023-02-28T13:14:04;6.80;99.90
19220;DHT22;9744;49.364;7.484;2023-02-28T13:16:55;6.90;99.90
19220;DHT22;9744;49.364;7.484;2023-02-28T13:19:25;7.10;99.90
19220;DHT22;9744;49.364;7.484;2023-02-28T13:21:53;7.20;99.90
19220;DHT22;9744;49.364;7.484;2023-02-28T13:24:41;7.50;99.90
19220;DHT22;9744;49.364;7.484;2023-02-28T13:27:24;7.80;99.90
19220;DHT22;9744;49.364;7.484;2023-02-28T13:30:00;8.00;99.90
19220;DHT22;9744;49.364;7.484;2023-02-28T13:32:33;8.10;99.90
19220;DHT22;9744;49.364;7.484;2023-02-28T13:38:23;7.80;99.90
19220;DHT22;9744;49.364;7.484;2023-02-28T13:40:51;7.60;99.90
19220;DHT22;9744;49.364;7.484;2023-02-28T13:43:18;7.60;99.90
19220;DHT22;9744;49.364;7.484;2023-02-28T13:46:10;7.20;99.90
19220;DHT22;9744;49.364;7.484;2023-02-28T13:48:37;7.00;99.90
19220;DHT22;9744;49.364;7.484;2023-02-28T13:51:37;7.00;99.90
19220;DHT22;9744;49.364;7.484;2023-02-28T13:54:23;7.20;99.90
19220;DHT22;9744;49.364;7.484;2023-02-28T13:57:00;7.30;99.90
19220;DHT22;9744;49.364;7.484;2023-02-28T13:59:34;7.50;99.90
19220;DHT22;9744;49.364;7.484;2023-02-28T14:02:31;7.40;99.90
19220;DHT22;9744;49.364;7.484;2023-02-28T14:05:02;7.70;99.90
19220;DHT22;9744;49.364;7.484;2023-02-28T14:07:41;8.30;99.90
19220;DHT22;9744;49.364;7.484;2023-02-28T14:10:22;8.70;99.90
19220;DHT22;9744;49.364;7.484;2023-02-28T14:12:59;9.10;99.90
19220;DHT22;9744;49.364;7.484;2023-02-28T14:15:36;9.00;99.90
19220;DHT22;9744;49.364;7.484;2023-02-28T14:18:21;8.90;99.90
19220;DHT22;9744;49.364;7.484;2023-02-28T14:20:53;8.70;99.90
19220;DHT22;9744;49.364;7.484;2023-02-28T14:26:25;9.10;99.90
19220;DHT22;9744;49.364;7.484;2023-02-28T14:29:07;9.20;98.80
19220;DHT22;9744;49.364;7.484;2023-02-28T14:31:40;9.20;99.20
19220;DHT22;9744;49.364;7.484;2023-02-28T14:34:36;9.30;98.50
19220;DHT22;9744;49.364;7.484;2023-02-28T14:37:04;9.40;97.90
19220;DHT22;9744;49.364;7.484;2023-02-28T14:39:33;8.90;98.00
19220;DHT22;9744;49.364;7.484;2023-02-28T14:42:02;8.90;98.40
19220;DHT22;9744;49.364;7.484;2023-02-28T14:44:30;8.40;96.90
19220;DHT22;9744;49.364;7.484;2023-02-28T14:47:00;7.90;97.80
19220;DHT22;9744;49.364;7.484;2023-02-28T14:49:34;7.60;99.10
19220;DHT22;9744;49.364;7.484;2023-02-28T14:52:06;8.10;99.80
19220;DHT22;9744;49.364;7.484;2023-02-28T14:54:35;8.20;99.90
19220;DHT22;9744;49.364;7.484;2023-02-28T14:57:03;8.40;98.40
19220;DHT22;9744;49.364;7.484;2023-02-28T14:59:32;7.80;97.70
19220;DHT22;9744;49.364;7.484;2023-02-28T15:02:19;7.00;98.70
19220;DHT22;9744;49.364;7.484;2023-02-28T15:04:56;6.60;99.80
19220;DHT22;9744;49.364;7.484;2023-02-28T15:07:23;6.30;99.90
19220;DHT22;9744;49.364;7.484;2023-02-28T15:10:13;5.90;99.90
19220;DHT22;9744;49.364;7.484;2023-02-28T15:12:48;5.70;99.90
19220;DHT22;9744;49.364;7.484;2023-02-28T15:15:17;5.50;99.90
19220;DHT22;9744;49.364;7.484;2023-02-28T15:17:49;6.10;99.90
19220;DHT22;9744;49.364;7.484;2023-02-28T15:20:19;6.90;99.90
19220;DHT22;9744;49.364;7.484;2023-02-28T15:22:47;7.10;99.90
19220;DHT22;9744;49.364;7.484;2023-02-28T15:25:19;7.10;99.90
19220;DHT22;9744;49.364;7.484;2023-02-28T15:27:49;7.50;99.90
19220;DHT22;9744;49.364;7.484;2023-02-28T15:30:19;7.80;99.90
19220;DHT22;9744;49.364;7.484;2023-02-28T15:33:06;7.90;99.90
19220;DHT22;9744;49.364;7.484;2023-02-28T15:35:35;7.80;99.90
19220;DHT22;9744;49.364;7.484;2023-02-28T15:38:03;7.80;99.90
19220;DHT22;9744;49.364;7.484;2023-02-28T15:40:42;7.90;99.90
19220;DHT22;9744;49.364;7.484;2023-02-28T15:43:14;8.10;99.90
19220;DHT22;9744;49.364;7.484;2023-02-28T15:45:45;7.80;99.90
19220;DHT22;9744;49.364;7.484;2023-02-28T15:48:17;7.70;99.90
19220;DHT22;9744;49.364;7.484;2023-02-28T15:50:49;7.60;99.90
19220;DHT22;9744;49.364;7.484;2023-02-28T15:53:21;7.50;99.90
19220;DHT22;9744;49.364;7.484;2023-02-28T15:55:54;7.10;99.90
19220;DHT22;9744;49.364;7.484;2023-02-28T15:58:22;6.90;99.90
19220;DHT22;9744;49.364;7.484;2023-02-28T16:01:03;7.20;99.90
19220;DHT22;9744;49.364;7.484;2023-02-28T16:03:39;7.30;99.90
19220;DHT22;9744;49.364;7.484;2023-02-28T16:06:28;7.20;99.90
19220;DHT22;9744;49.364;7.484;2023-02-28T16:08:57;7.10;99.90
19220;DHT22;9744;49.364;7.484;2023-02-28T16:11:25;7.10;99.90
19220;DHT22;9744;49.364;7.484;2023-02-28T16:13:52;7.00;99.90
19220;DHT22;9744;49.364;7.484;2023-02-28T16:16:21;6.90;99.90
19220;DHT22;9744;49.364;7.484;2023-02-28T16:18:49;7.00;99.90
19220;DHT22;9744;49.364;7.484;2023-02-28T16:21:17;6.90;99.90
19220;DHT22;9744;49.364;7.484;2023-02-28T16:23:45;6.70;99.90
19220;DHT22;9744;49.364;7.484;2023-02-28T16:26:19;6.60;99.90
19220;DHT22;9744;49.364;7.484;2023-02-28T16:28:48;6.60;99.90
19220;DHT22;9744;49.364;7.484;2023-02-28T16:31:15;6.60;99.90
19220;DHT22;9744;49.364;7.484;2023-02-28T16:33:44;6.50;99.90
19220;DHT22;9744;49.364;7.484;2023-02-28T16:36:16;6.40;99.90
19220;DHT22;9744;49.364;7.484;2023-02-28T16:38:45;6.30;99.90
19220;DHT22;9744;49.364;7.484;2023-02-28T16:41:14;6.20;99.90
19220;DHT22;9744;49.364;7.484;2023-02-28T16:43:46;6.00;99.90
19220;DHT22;9744;49.364;7.484;2023-02-28T16:46:15;5.80;99.90